Sao Sebastiao do Paraiso, Brazil
Current Conditions -  °F | °C
As of 5:00 AM on Saturday 20 Dec 2014 (Local Time) from SBRP Reporting Station
Clear Clear  
Wind Chill: 73°   Ceiling: Unl
Heat Index: 73°   Visibility: 6mi
Dew Point: 68°   Wind: 3mph
Humidity: 83%   Direction: 80°E
Pressure: 29.85"   Gusts: NA
Location:  20.92°S, 46.99°W
Report Text: SBRP 200700Z 08003KT CAVOK 23/20 Q1011
Loading
Personal Weather Stations






























Interactive Weather Map New forecast layout! Learn more

10-Day Weather Forecast

Advertisements
Track Severe Weather on mobile